Time;durP1;ratioP1;P1;durP2;ratioP2;P2;SDS_P1;SDS_P2;PMS_P1;PMS_P2;Temp;Humidity;BMP_temperature;BMP_pressure;BME280_temperature;BME280_humidity;BME280_pressure;Samples;Min_cycle;Max_cycle;Signal;HPM_P1;HPM_P2
2023/09/25 00:02:00;;;;;;;8.07;4.57;;;8.70;99.90;;;;;;4942827;29;20035;-86
2023/09/25 00:04:28;;;;;;;7.20;4.00;;;8.70;99.90;;;;;;4943554;28;20026;-86
2023/09/25 00:06:54;;;;;;;8.17;4.53;;;8.70;99.90;;;;;;4944528;29;20099;-86
2023/09/25 00:09:19;;;;;;;6.63;3.83;;;8.70;99.90;;;;;;4943218;29;20035;-86
2023/09/25 00:11:45;;;;;;;6.30;4.00;;;8.60;99.90;;;;;;4943180;29;20062;-86
2023/09/25 00:14:11;;;;;;;5.90;3.97;;;8.60;99.90;;;;;;4945046;28;20019;-86
2023/09/25 00:16:37;;;;;;;4.83;3.50;;;8.60;99.90;;;;;;4946142;28;20079;-86
2023/09/25 00:19:04;;;;;;;5.03;3.30;;;8.50;99.90;;;;;;4946221;29;20555;-86
2023/09/25 00:21:30;;;;;;;5.73;3.67;;;8.50;99.90;;;;;;4946437;29;20834;-86
2023/09/25 00:23:55;;;;;;;6.30;3.90;;;8.50;99.90;;;;;;4945807;29;20046;-86
2023/09/25 00:26:21;;;;;;;6.03;3.23;;;8.50;99.90;;;;;;4946303;28;20034;-86
2023/09/25 00:28:47;;;;;;;5.63;4.10;;;8.50;99.90;;;;;;4946316;29;20406;-86
2023/09/25 00:31:12;;;;;;;10.17;3.40;;;8.50;99.90;;;;;;4945968;29;20035;-86
2023/09/25 00:33:38;;;;;;;8.97;3.63;;;8.50;99.90;;;;;;4946582;29;20027;-87
2023/09/25 00:36:04;;;;;;;7.63;3.50;;;8.50;99.90;;;;;;4945775;29;20039;-86
2023/09/25 00:38:30;;;;;;;6.03;3.10;;;8.50;99.90;;;;;;4946836;29;20062;-86
2023/09/25 00:40:56;;;;;;;5.13;3.30;;;8.50;99.90;;;;;;4946100;29;20038;-86
2023/09/25 00:43:21;;;;;;;7.77;3.70;;;8.50;99.90;;;;;;4946198;29;20031;-86
2023/09/25 00:45:48;;;;;;;6.53;3.70;;;8.50;99.90;;;;;;4944515;29;20031;-85
2023/09/25 00:48:28;;;;;;;5.37;2.83;;;8.50;99.90;;;;;;4945820;29;20035;-86
2023/09/25 00:50:55;;;;;;;5.30;3.17;;;8.50;99.90;;;;;;4945725;29;20074;-85
2023/09/25 00:53:22;;;;;;;7.67;3.53;;;8.50;99.90;;;;;;4946333;29;20027;-86
2023/09/25 00:55:48;;;;;;;5.63;3.30;;;8.50;99.90;;;;;;4944893;28;21021;-86
2023/09/25 00:58:14;;;;;;;5.37;3.43;;;8.50;99.90;;;;;;4945350;29;20030;-85
2023/09/25 01:00:41;;;;;;;5.00;3.10;;;8.50;99.90;;;;;;4960185;29;20015;-85
2023/09/25 01:03:07;;;;;;;6.23;4.00;;;8.50;99.90;;;;;;4947660;29;20035;-86
2023/09/25 01:05:35;;;;;;;7.30;3.70;;;8.40;99.90;;;;;;4944548;28;20130;-86
2023/09/25 01:08:02;;;;;;;9.17;4.77;;;8.40;99.90;;;;;;4944922;29;20133;-85
2023/09/25 01:10:27;;;;;;;5.93;3.83;;;8.40;99.90;;;;;;4944096;29;20035;-86
2023/09/25 01:12:53;;;;;;;8.40;4.37;;;8.40;99.90;;;;;;4943904;29;20027;-86
2023/09/25 01:15:19;;;;;;;6.67;3.93;;;8.40;99.90;;;;;;4944440;28;20110;-85
2023/09/25 01:17:45;;;;;;;6.17;3.40;;;8.40;99.90;;;;;;4945421;29;20124;-86
2023/09/25 01:20:12;;;;;;;7.83;4.10;;;8.40;99.90;;;;;;4945379;29;20027;-86
2023/09/25 01:22:40;;;;;;;6.87;3.90;;;8.40;99.90;;;;;;4947663;29;20035;-86
2023/09/25 01:25:06;;;;;;;7.47;4.20;;;8.40;99.90;;;;;;4944191;28;20047;-86
2023/09/25 01:27:32;;;;;;;6.37;3.87;;;8.30;99.90;;;;;;4945160;29;20042;-85
2023/09/25 01:29:57;;;;;;;5.90;3.50;;;8.40;99.90;;;;;;4944992;29;20498;-85
2023/09/25 01:32:23;;;;;;;6.27;3.57;;;8.30;99.90;;;;;;4945603;29;20134;-86
2023/09/25 01:34:49;;;;;;;5.67;3.73;;;8.30;99.90;;;;;;4943976;29;20031;-85
2023/09/25 01:37:15;;;;;;;6.93;3.80;;;8.30;99.90;;;;;;4945201;29;21031;-85
2023/09/25 01:39:41;;;;;;;6.50;3.60;;;8.30;99.90;;;;;;4944236;29;20043;-85
2023/09/25 01:42:07;;;;;;;7.27;4.00;;;8.30;99.90;;;;;;4945317;29;20046;-86
2023/09/25 01:44:33;;;;;;;7.77;3.60;;;8.30;99.90;;;;;;4944164;28;20027;-86
2023/09/25 01:46:58;;;;;;;6.03;3.80;;;8.20;99.90;;;;;;4945065;29;20027;-86
2023/09/25 01:49:24;;;;;;;7.10;3.73;;;8.30;99.90;;;;;;4945187;29;20023;-86
2023/09/25 01:51:49;;;;;;;6.77;3.20;;;8.20;99.90;;;;;;4944373;29;20042;-86
2023/09/25 01:54:15;;;;;;;7.13;3.53;;;8.20;99.90;;;;;;4944797;28;20123;-85
2023/09/25 01:56:41;;;;;;;6.03;3.73;;;8.20;99.90;;;;;;4944664;29;20115;-86
2023/09/25 01:59:07;;;;;;;13.57;4.10;;;8.20;99.90;;;;;;4944543;29;20031;-86
2023/09/25 02:01:32;;;;;;;12.37;3.90;;;8.20;99.90;;;;;;4943381;29;20031;-85
2023/09/25 02:03:58;;;;;;;7.53;3.50;;;8.20;99.90;;;;;;4944098;29;20817;-85
2023/09/25 02:06:23;;;;;;;10.00;3.97;;;8.20;99.90;;;;;;4944090;28;20103;-86
2023/09/25 02:08:49;;;;;;;6.23;3.50;;;8.20;99.90;;;;;;4945067;29;20446;-85
2023/09/25 02:11:14;;;;;;;6.37;3.53;;;8.20;99.90;;;;;;4945603;29;20098;-85
2023/09/25 02:13:40;;;;;;;6.17;3.50;;;8.20;99.90;;;;;;4944637;29;20126;-86
2023/09/25 02:16:05;;;;;;;5.77;3.17;;;8.20;99.90;;;;;;4944683;29;20112;-85
2023/09/25 02:18:31;;;;;;;7.97;3.93;;;8.20;99.90;;;;;;4943506;29;20027;-86
2023/09/25 02:20:57;;;;;;;6.90;3.70;;;8.20;99.90;;;;;;4943097;29;20119;-86
2023/09/25 02:23:22;;;;;;;7.70;4.33;;;8.20;99.90;;;;;;4943349;29;20321;-85
2023/09/25 02:25:48;;;;;;;7.37;3.57;;;8.20;99.90;;;;;;4942845;29;20158;-86
2023/09/25 02:28:13;;;;;;;6.90;3.90;;;8.10;99.90;;;;;;4943064;29;20662;-86
2023/09/25 02:30:39;;;;;;;7.60;3.13;;;8.10;99.90;;;;;;4924908;29;20035;-85
2023/09/25 02:33:04;;;;;;;8.77;3.80;;;8.20;99.90;;;;;;4944017;29;20094;-85
2023/09/25 02:35:31;;;;;;;4.83;3.53;;;8.10;99.90;;;;;;4941810;28;20042;-86
2023/09/25 02:37:57;;;;;;;6.53;3.63;;;8.20;99.90;;;;;;4944001;29;20094;-85
2023/09/25 02:40:24;;;;;;;7.00;4.17;;;8.20;99.90;;;;;;4942631;29;20114;-85
2023/09/25 02:42:49;;;;;;;5.10;3.53;;;8.20;99.90;;;;;;4943848;29;20035;-86
2023/09/25 02:45:16;;;;;;;8.07;3.90;;;8.10;99.90;;;;;;4943246;28;20202;-86
2023/09/25 02:47:42;;;;;;;5.90;4.67;;;8.10;99.90;;;;;;4949023;29;20035;-85
2023/09/25 02:50:08;;;;;;;6.17;4.00;;;8.10;99.90;;;;;;4953109;29;20044;-86
2023/09/25 02:52:34;;;;;;;9.07;3.90;;;8.10;99.90;;;;;;4943603;29;20038;-85
2023/09/25 02:54:59;;;;;;;6.00;4.03;;;8.10;99.90;;;;;;4942951;28;20035;-86
2023/09/25 02:57:25;;;;;;;6.13;3.70;;;8.10;99.90;;;;;;4943940;29;20107;-86
2023/09/25 02:59:50;;;;;;;7.77;4.27;;;8.00;99.90;;;;;;4943823;29;20102;-85
2023/09/25 03:02:17;;;;;;;7.37;4.03;;;8.00;99.90;;;;;;4943043;29;20115;-86
2023/09/25 03:04:42;;;;;;;7.10;4.10;;;8.00;99.90;;;;;;4942948;29;20027;-85
2023/09/25 03:07:08;;;;;;;6.87;3.87;;;8.00;99.90;;;;;;4942450;29;20037;-86
2023/09/25 03:09:34;;;;;;;7.93;4.37;;;8.00;99.90;;;;;;4943742;29;20895;-86
2023/09/25 03:12:00;;;;;;;5.10;3.50;;;7.90;99.90;;;;;;4942938;29;20549;-86
2023/09/25 03:14:27;;;;;;;8.63;4.03;;;7.90;99.90;;;;;;4943220;29;20051;-87
2023/09/25 03:16:52;;;;;;;7.20;4.20;;;7.90;99.90;;;;;;4943071;29;20035;-87
2023/09/25 03:19:18;;;;;;;6.27;4.20;;;7.90;99.90;;;;;;4943018;29;20500;-86
2023/09/25 03:21:44;;;;;;;6.10;3.93;;;7.90;99.90;;;;;;4942234;29;20085;-86
2023/09/25 03:24:10;;;;;;;7.63;4.27;;;7.90;99.90;;;;;;4942520;29;20027;-86
2023/09/25 03:26:36;;;;;;;5.70;4.10;;;7.90;99.90;;;;;;4942020;28;20098;-86
2023/09/25 03:29:04;;;;;;;6.83;4.10;;;7.90;99.90;;;;;;4943165;29;20802;-86
2023/09/25 03:31:29;;;;;;;8.03;3.80;;;7.80;99.90;;;;;;4943068;29;20038;-87
2023/09/25 03:33:55;;;;;;;6.33;4.43;;;7.80;99.90;;;;;;4942911;29;20023;-86
2023/09/25 03:36:20;;;;;;;5.93;4.13;;;7.80;99.90;;;;;;4943906;28;21243;-86
2023/09/25 03:38:46;;;;;;;5.87;4.00;;;7.80;99.90;;;;;;4943572;29;20042;-85
2023/09/25 03:41:11;;;;;;;6.70;4.40;;;7.80;99.90;;;;;;4947308;28;20063;-85
2023/09/25 03:43:37;;;;;;;6.50;4.03;;;7.70;99.90;;;;;;4946434;29;20134;-85
2023/09/25 03:46:03;;;;;;;7.67;4.47;;;7.70;99.90;;;;;;4945185;28;20031;-86
2023/09/25 03:48:28;;;;;;;8.33;4.33;;;7.70;99.90;;;;;;4944343;28;20128;-86
2023/09/25 03:50:54;;;;;;;7.13;3.97;;;7.70;99.90;;;;;;4945664;29;20042;-86
2023/09/25 03:53:20;;;;;;;7.53;3.90;;;7.60;99.90;;;;;;4946838;29;20082;-86
2023/09/25 03:55:46;;;;;;;7.40;4.40;;;7.60;99.90;;;;;;4946246;29;20027;-86
2023/09/25 03:58:11;;;;;;;5.83;4.33;;;7.60;99.90;;;;;;4947078;29;20035;-86
2023/09/25 04:00:37;;;;;;;6.67;5.03;;;7.50;99.90;;;;;;4946813;29;20046;-85
2023/09/25 04:03:03;;;;;;;11.87;5.47;;;7.60;99.90;;;;;;4946778;29;20023;-86
2023/09/25 04:05:29;;;;;;;8.70;5.17;;;7.60;99.90;;;;;;4945515;29;20027;-86
2023/09/25 04:07:55;;;;;;;11.47;4.90;;;7.50;99.90;;;;;;4941966;29;20030;-85
2023/09/25 04:10:21;;;;;;;8.23;4.60;;;7.50;99.90;;;;;;4943859;29;20043;-86
2023/09/25 04:12:48;;;;;;;7.53;4.83;;;7.50;99.90;;;;;;4939377;29;20023;-86
2023/09/25 04:15:14;;;;;;;9.87;5.10;;;7.50;99.90;;;;;;4953306;29;20057;-85
2023/09/25 04:17:40;;;;;;;7.77;4.80;;;7.50;99.90;;;;;;4953601;29;20035;-85
2023/09/25 04:20:16;;;;;;;8.60;4.70;;;7.50;99.90;;;;;;4950655;28;20046;-85
2023/09/25 04:22:42;;;;;;;6.93;5.23;;;7.50;99.90;;;;;;4951259;29;20028;-85
2023/09/25 04:25:18;;;;;;;8.73;4.83;;;7.50;99.90;;;;;;4950437;29;20081;-86
2023/09/25 04:27:44;;;;;;;11.27;5.07;;;7.50;99.90;;;;;;4942677;29;20165;-86
2023/09/25 04:30:14;;;;;;;5.90;4.27;;;7.50;99.90;;;;;;4943097;29;20047;-86
2023/09/25 04:32:41;;;;;;;12.33;4.93;;;7.50;99.90;;;;;;4944732;29;20406;-86
2023/09/25 04:35:07;;;;;;;7.67;4.37;;;7.40;99.90;;;;;;4926954;29;20035;-86
2023/09/25 04:37:33;;;;;;;7.87;4.77;;;7.40;99.90;;;;;;4941383;29;20027;-86
2023/09/25 04:39:59;;;;;;;7.83;4.20;;;7.40;99.90;;;;;;4944038;28;20125;-85
2023/09/25 04:42:25;;;;;;;5.60;4.37;;;7.40;99.90;;;;;;4943749;29;20034;-83
2023/09/25 04:44:51;;;;;;;8.27;4.60;;;7.40;99.90;;;;;;4948016;28;20575;-83
2023/09/25 04:47:17;;;;;;;9.07;4.87;;;7.40;99.90;;;;;;4944627;28;20042;-83
2023/09/25 04:49:42;;;;;;;6.80;4.70;;;7.40;99.90;;;;;;4949163;29;20031;-83
2023/09/25 04:52:08;;;;;;;10.53;5.10;;;7.40;99.90;;;;;;4948585;29;20031;-83
2023/09/25 04:54:37;;;;;;;6.90;4.43;;;7.40;99.90;;;;;;4947121;28;20390;-83
2023/09/25 04:57:02;;;;;;;8.27;4.80;;;7.30;99.90;;;;;;4949478;28;20486;-83
2023/09/25 04:59:28;;;;;;;7.87;4.40;;;7.30;99.90;;;;;;4948230;28;20070;-83
2023/09/25 05:01:53;;;;;;;8.33;5.20;;;7.30;99.90;;;;;;4949853;29;20043;-83
2023/09/25 05:04:19;;;;;;;8.77;4.77;;;7.30;99.90;;;;;;4949490;29;20093;-83
2023/09/25 05:06:44;;;;;;;11.00;5.60;;;7.30;99.90;;;;;;4946925;29;20106;-83
2023/09/25 05:09:11;;;;;;;11.67;5.97;;;7.30;99.90;;;;;;4946439;29;20114;-83
2023/09/25 05:11:37;;;;;;;15.10;7.23;;;7.30;99.90;;;;;;4946929;29;20039;-83
2023/09/25 05:14:03;;;;;;;15.23;10.03;;;7.30;99.90;;;;;;4945347;29;20097;-83
2023/09/25 05:16:29;;;;;;;33.30;18.80;;;7.30;99.90;;;;;;4947771;28;20032;-83
2023/09/25 05:18:57;;;;;;;25.17;14.77;;;7.20;99.90;;;;;;4947924;29;20038;-83
2023/09/25 05:21:23;;;;;;;13.37;6.27;;;7.20;99.90;;;;;;4948300;29;20083;-83
2023/09/25 05:23:49;;;;;;;7.97;4.70;;;7.20;99.90;;;;;;4946892;29;20182;-83
2023/09/25 05:26:14;;;;;;;6.70;4.30;;;7.20;99.90;;;;;;4948761;29;20505;-83
2023/09/25 05:28:40;;;;;;;7.67;4.50;;;7.20;99.90;;;;;;4948904;29;20054;-83
2023/09/25 05:31:05;;;;;;;8.17;4.80;;;7.20;99.90;;;;;;4944043;29;20055;-83
2023/09/25 05:33:31;;;;;;;8.20;4.17;;;7.20;99.90;;;;;;4945970;29;20028;-83
2023/09/25 05:35:56;;;;;;;7.07;4.47;;;7.20;99.90;;;;;;4947069;28;20042;-82
2023/09/25 05:38:22;;;;;;;8.70;5.13;;;7.20;99.90;;;;;;4945889;29;21123;-83
2023/09/25 05:40:47;;;;;;;6.83;4.73;;;7.20;99.90;;;;;;4937755;29;20027;-82
2023/09/25 05:43:13;;;;;;;8.47;5.17;;;7.30;99.90;;;;;;4941045;29;20105;-83
2023/09/25 05:45:38;;;;;;;12.03;5.53;;;7.30;99.90;;;;;;4940284;28;20134;-83
2023/09/25 05:48:04;;;;;;;10.33;5.73;;;7.30;99.90;;;;;;4941416;29;20139;-83
2023/09/25 05:50:33;;;;;;;8.67;5.57;;;7.40;99.90;;;;;;4938278;29;20656;-82
2023/09/25 05:52:59;;;;;;;8.70;5.30;;;7.40;99.90;;;;;;4939526;29;20122;-83
2023/09/25 05:55:25;;;;;;;7.70;5.10;;;7.50;99.90;;;;;;4938226;28;20039;-84
2023/09/25 05:57:51;;;;;;;7.63;4.87;;;7.50;99.90;;;;;;4938340;29;20049;-84
2023/09/25 06:00:18;;;;;;;8.40;4.87;;;7.60;99.90;;;;;;4937931;29;20406;-84
2023/09/25 06:02:44;;;;;;;6.77;4.43;;;7.70;99.90;;;;;;4938016;29;20109;-84
2023/09/25 06:05:14;;;;;;;8.40;4.80;;;7.70;99.90;;;;;;4937835;28;20068;-84
2023/09/25 06:07:39;;;;;;;7.57;5.30;;;7.80;99.90;;;;;;4938396;29;20110;-84
2023/09/25 06:10:07;;;;;;;8.00;5.63;;;7.90;99.90;;;;;;4937304;29;20039;-84
2023/09/25 06:12:33;;;;;;;8.30;6.00;;;7.90;99.90;;;;;;4934414;29;20038;-85
2023/09/25 06:14:59;;;;;;;10.07;6.43;;;8.00;99.90;;;;;;4935596;29;20039;-84
2023/09/25 06:17:27;;;;;;;9.93;5.77;;;8.10;99.90;;;;;;4934962;29;21497;-84
2023/09/25 06:19:54;;;;;;;13.47;8.53;;;8.10;99.90;;;;;;4935058;29;20035;-84
2023/09/25 06:22:23;;;;;;;12.37;7.30;;;8.20;99.90;;;;;;4934150;29;20217;-85
2023/09/25 06:24:49;;;;;;;8.50;5.73;;;8.30;99.90;;;;;;4935559;28;20031;-84
2023/09/25 06:27:14;;;;;;;9.17;6.03;;;8.40;99.90;;;;;;4938830;29;20027;-83
2023/09/25 06:29:41;;;;;;;10.53;5.50;;;8.40;99.90;;;;;;4935469;29;20023;-84
2023/09/25 06:32:07;;;;;;;9.47;6.47;;;8.50;99.90;;;;;;4936983;29;20506;-83
2023/09/25 06:34:32;;;;;;;10.60;6.50;;;8.60;99.90;;;;;;4938335;28;20183;-83
2023/09/25 06:36:58;;;;;;;9.93;6.50;;;8.60;99.90;;;;;;4940231;29;20118;-83
2023/09/25 06:39:24;;;;;;;8.60;6.00;;;8.70;99.90;;;;;;4939829;28;20471;-83
2023/09/25 06:41:49;;;;;;;10.97;7.03;;;8.80;99.90;;;;;;4940684;29;20159;-83
2023/09/25 06:44:15;;;;;;;11.40;6.70;;;8.90;99.90;;;;;;4939657;29;20039;-84
2023/09/25 06:46:43;;;;;;;10.83;7.20;;;9.00;99.90;;;;;;4941399;29;20027;-83
2023/09/25 06:49:08;;;;;;;9.73;6.30;;;9.10;99.90;;;;;;4940096;29;20845;-84
2023/09/25 06:51:34;;;;;;;10.83;5.93;;;9.10;99.90;;;;;;4940384;29;20043;-83
2023/09/25 06:54:00;;;;;;;12.93;6.33;;;9.20;99.90;;;;;;4940463;29;20023;-84
2023/09/25 06:56:25;;;;;;;12.00;6.53;;;9.30;99.90;;;;;;4937272;28;20033;-84
2023/09/25 06:58:51;;;;;;;8.80;6.00;;;9.40;99.90;;;;;;4939050;29;20035;-84
2023/09/25 07:01:18;;;;;;;10.67;6.37;;;9.50;99.90;;;;;;4939806;29;20023;-84
2023/09/25 07:03:44;;;;;;;10.13;6.00;;;9.50;99.90;;;;;;4939219;29;20035;-84
2023/09/25 07:06:10;;;;;;;9.17;5.27;;;9.60;99.90;;;;;;4937872;28;20023;-84
2023/09/25 07:08:38;;;;;;;8.70;5.77;;;9.70;99.90;;;;;;4940634;29;20031;-89
2023/09/25 07:11:03;;;;;;;9.47;5.27;;;9.80;99.90;;;;;;4940081;29;20035;-84
2023/09/25 07:13:29;;;;;;;8.50;5.53;;;9.90;99.90;;;;;;4940309;29;20110;-83
2023/09/25 07:16:08;;;;;;;9.53;5.50;;;10.10;99.90;;;;;;4939399;28;20061;-84
2023/09/25 07:18:34;;;;;;;9.77;5.33;;;10.30;99.90;;;;;;4940042;29;20043;-83
2023/09/25 07:21:00;;;;;;;7.10;5.00;;;10.40;99.90;;;;;;4921413;29;20031;-83
2023/09/25 07:23:26;;;;;;;9.43;6.03;;;10.50;99.90;;;;;;4940300;28;20794;-84
2023/09/25 07:25:59;;;;;;;11.47;6.13;;;10.70;99.90;;;;;;4937181;28;20574;-83
2023/09/25 07:28:25;;;;;;;16.83;5.90;;;10.80;99.90;;;;;;4943471;29;20035;-83
2023/09/25 07:30:50;;;;;;;12.50;5.50;;;11.00;99.90;;;;;;4942378;29;20471;-83
2023/09/25 07:33:16;;;;;;;7.97;5.50;;;11.10;99.90;;;;;;4943982;29;20419;-83
2023/09/25 07:35:42;;;;;;;9.52;5.50;;;11.30;99.90;;;;;;4943324;28;20786;-84
2023/09/25 07:38:08;;;;;;;6.43;4.20;;;11.40;99.90;;;;;;4943216;29;20043;-84
2023/09/25 07:40:33;;;;;;;6.07;4.10;;;11.60;99.90;;;;;;4943725;29;20035;-84
2023/09/25 07:42:59;;;;;;;8.80;4.60;;;11.70;99.90;;;;;;4941400;29;20680;-84
2023/09/25 07:45:25;;;;;;;7.55;3.88;;;11.90;99.90;;;;;;4937871;28;20023;-84
2023/09/25 07:47:52;;;;;;;8.25;4.05;;;12.00;99.90;;;;;;4938257;29;20035;-84
2023/09/25 07:50:19;;;;;;;8.23;3.72;;;12.20;99.90;;;;;;4938650;29;20039;-84
2023/09/25 07:52:45;;;;;;;5.97;3.22;;;12.30;99.90;;;;;;4936773;29;20122;-84
2023/09/25 07:55:11;;;;;;;7.65;3.13;;;12.50;99.90;;;;;;4936427;28;20039;-84
2023/09/25 07:57:40;;;;;;;6.07;3.15;;;12.70;99.90;;;;;;4938369;29;20779;-84
2023/09/25 08:00:21;;;;;;;9.00;3.25;;;12.80;99.90;;;;;;4938301;29;20039;-83
2023/09/25 08:02:48;;;;;;;6.93;3.33;;;12.90;99.90;;;;;;4933933;29;20038;-84
2023/09/25 08:05:15;;;;;;;4.18;2.55;;;13.10;99.90;;;;;;4937050;28;20027;-84
2023/09/25 08:07:40;;;;;;;6.50;3.25;;;13.30;99.90;;;;;;4938749;29;20497;-85
2023/09/25 08:10:07;;;;;;;5.03;3.20;;;13.40;99.90;;;;;;4937250;29;20035;-84
2023/09/25 08:12:32;;;;;;;4.68;2.65;;;13.50;99.90;;;;;;4939860;29;20154;-84
2023/09/25 08:14:58;;;;;;;6.32;2.53;;;13.60;99.90;;;;;;4941333;28;20035;-84
2023/09/25 08:17:24;;;;;;;6.50;2.03;;;13.70;99.90;;;;;;4938184;29;20119;-85
2023/09/25 08:19:55;;;;;;;3.55;2.13;;;13.80;99.90;;;;;;4936241;29;20027;-84
2023/09/25 08:22:20;;;;;;;6.47;2.40;;;14.00;99.90;;;;;;4937781;29;20030;-84
2023/09/25 08:24:47;;;;;;;5.82;2.55;;;14.00;99.90;;;;;;4935508;28;20034;-84
2023/09/25 08:27:14;;;;;;;4.85;2.65;;;14.20;99.90;;;;;;4941188;29;20146;-84
2023/09/25 08:29:39;;;;;;;7.85;4.07;;;14.30;99.90;;;;;;4942831;29;20035;-83
2023/09/25 08:32:05;;;;;;;4.20;2.58;;;14.30;99.90;;;;;;4941922;29;20089;-84
2023/09/25 08:34:31;;;;;;;3.92;2.33;;;14.50;99.90;;;;;;4940178;28;20023;-85
2023/09/25 08:36:57;;;;;;;6.00;2.20;;;14.60;99.90;;;;;;4940671;29;20065;-85
2023/09/25 08:39:22;;;;;;;5.35;2.42;;;14.70;99.90;;;;;;4942023;28;20043;-84
2023/09/25 08:41:48;;;;;;;7.57;2.38;;;14.80;99.90;;;;;;4942380;29;20759;-86
2023/09/25 08:44:15;;;;;;;4.30;2.30;;;14.90;99.90;;;;;;4942529;29;20109;-85
2023/09/25 08:46:42;;;;;;;7.82;2.53;;;15.00;99.90;;;;;;4944211;29;20031;-85
2023/09/25 08:49:08;;;;;;;5.20;1.90;;;15.10;99.90;;;;;;4942321;29;20082;-85
2023/09/25 08:51:35;;;;;;;5.95;2.30;;;15.20;99.90;;;;;;4942227;29;20031;-83
2023/09/25 08:54:02;;;;;;;5.60;2.13;;;15.30;99.90;;;;;;4943230;29;20059;-85
2023/09/25 08:56:29;;;;;;;5.57;2.22;;;15.50;99.90;;;;;;4942916;28;20035;-85
2023/09/25 08:58:57;;;;;;;5.20;2.20;;;15.60;99.90;;;;;;4942255;29;20027;-84
2023/09/25 09:01:23;;;;;;;5.70;2.28;;;15.70;99.90;;;;;;4941825;29;20111;-85
2023/09/25 09:03:49;;;;;;;6.20;2.55;;;15.90;99.90;;;;;;4938756;29;20031;-86
2023/09/25 09:06:15;;;;;;;10.30;2.42;;;16.10;99.90;;;;;;4942170;28;20035;-85
2023/09/25 09:08:45;;;;;;;4.47;2.20;;;16.20;99.90;;;;;;4934327;28;20027;-84
2023/09/25 09:11:12;;;;;;;6.93;2.20;;;16.50;99.90;;;;;;4941577;29;20073;-85
2023/09/25 09:13:42;;;;;;;6.28;2.60;;;16.50;99.90;;;;;;4942146;29;20090;-85
2023/09/25 09:16:12;;;;;;;3.78;2.30;;;16.60;99.90;;;;;;4938717;28;20498;-77
2023/09/25 09:18:38;;;;;;;4.68;2.20;;;16.70;99.90;;;;;;4940729;29;20030;-76
2023/09/25 09:21:04;;;;;;;3.90;2.22;;;16.90;99.90;;;;;;4942535;29;20043;-77
2023/09/25 09:23:40;;;;;;;5.30;2.25;;;17.00;99.90;;;;;;4942336;29;20368;-77
2023/09/25 09:26:07;;;;;;;6.13;2.35;;;17.00;99.90;;;;;;4940695;29;20061;-77
2023/09/25 09:28:33;;;;;;;5.40;1.90;;;17.00;99.90;;;;;;4941196;29;20162;-77
2023/09/25 09:31:05;;;;;;;4.53;1.90;;;17.20;99.90;;;;;;4942513;29;20035;-77
2023/09/25 09:33:31;;;;;;;5.35;2.13;;;17.30;99.90;;;;;;4941020;29;20078;-77
2023/09/25 09:35:56;;;;;;;4.78;2.40;;;17.50;99.90;;;;;;4938568;28;20431;-77
2023/09/25 09:38:22;;;;;;;6.00;2.33;;;17.50;99.90;;;;;;4942332;29;20024;-78
2023/09/25 09:40:51;;;;;;;3.65;2.13;;;17.60;99.90;;;;;;4939180;28;20039;-77
2023/09/25 09:43:16;;;;;;;3.67;2.22;;;17.70;99.90;;;;;;4941281;29;20058;-81
2023/09/25 09:45:47;;;;;;;12.07;2.55;;;17.90;99.90;;;;;;4941015;28;20118;-80
2023/09/25 09:48:14;;;;;;;5.05;2.20;;;18.00;99.90;;;;;;4942536;29;20037;-80
2023/09/25 09:50:44;;;;;;;4.38;2.20;;;18.00;99.90;;;;;;4943038;29;20397;-80
2023/09/25 09:53:10;;;;;;;3.83;2.17;;;18.10;99.90;;;;;;4943403;29;20198;-80
2023/09/25 09:55:37;;;;;;;4.20;2.03;;;18.20;99.90;;;;;;4940637;28;20038;-80
2023/09/25 09:58:05;;;;;;;3.50;2.10;;;18.10;99.90;;;;;;4942226;28;20027;-80
2023/09/25 10:00:31;;;;;;;3.35;2.13;;;18.20;99.90;;;;;;4940996;29;21397;-82
2023/09/25 10:02:56;;;;;;;6.32;2.38;;;18.20;99.90;;;;;;4940162;29;20038;-79
2023/09/25 10:05:22;;;;;;;4.07;1.95;;;18.40;99.90;;;;;;4940915;28;20116;-80
2023/09/25 10:08:09;;;;;;;3.17;1.90;;;18.60;99.90;;;;;;4942840;29;20063;-79
2023/09/25 10:10:43;;;;;;;5.18;2.05;;;18.80;99.90;;;;;;4943449;29;20049;-80
2023/09/25 10:13:28;;;;;;;3.95;1.95;;;18.70;99.90;;;;;;4943644;29;20034;-80
2023/09/25 10:15:59;;;;;;;4.13;1.80;;;18.80;99.90;;;;;;4943553;28;20230;-80
2023/09/25 10:18:31;;;;;;;3.67;2.10;;;18.90;99.90;;;;;;4943815;29;20042;-80
2023/09/25 10:21:08;;;;;;;4.13;1.83;;;19.10;99.90;;;;;;4943568;29;20066;-80
2023/09/25 10:23:35;;;;;;;4.25;2.10;;;19.20;99.90;;;;;;4944449;29;20783;-80
2023/09/25 10:26:02;;;;;;;4.93;2.10;;;19.20;99.90;;;;;;4943381;29;20051;-79
2023/09/25 10:28:32;;;;;;;3.90;1.90;;;19.30;99.90;;;;;;4943732;29;20122;-80
2023/09/25 10:31:03;;;;;;;4.35;1.75;;;19.40;99.90;;;;;;4942949;29;20041;-80
2023/09/25 10:33:35;;;;;;;3.97;1.90;;;19.60;99.90;;;;;;4936364;29;20696;-80
2023/09/25 10:36:04;;;;;;;3.88;1.88;;;19.70;99.90;;;;;;4935827;28;20034;-80
2023/09/25 10:38:36;;;;;;;4.75;1.88;;;19.80;99.90;;;;;;4941459;29;20071;-80
2023/09/25 10:41:06;;;;;;;5.03;1.75;;;20.00;99.90;;;;;;4942473;29;20036;-80
2023/09/25 10:43:34;;;;;;;2.67;1.77;;;20.10;99.90;;;;;;4942315;29;20553;-79
2023/09/25 10:46:00;;;;;;;3.28;1.60;;;20.20;99.90;;;;;;4941466;28;20122;-80
2023/09/25 10:48:27;;;;;;;4.50;1.73;;;20.10;99.90;;;;;;4942611;29;20031;-80
2023/09/25 10:50:53;;;;;;;3.67;1.60;;;20.00;99.90;;;;;;4924857;29;20134;-80
2023/09/25 10:53:19;;;;;;;4.25;2.00;;;20.00;99.90;;;;;;4942278;29;21727;-80
2023/09/25 10:55:47;;;;;;;3.78;1.85;;;20.10;99.90;;;;;;4941801;29;20045;-80
2023/09/25 10:58:13;;;;;;;4.60;1.90;;;20.20;99.90;;;;;;4943130;28;20116;-80
2023/09/25 11:00:43;;;;;;;3.28;1.80;;;20.20;99.90;;;;;;4940621;28;20032;-79
2023/09/25 11:03:09;;;;;;;2.75;1.80;;;20.30;99.90;;;;;;4940836;29;20035;-79
2023/09/25 11:05:37;;;;;;;3.03;1.70;;;20.40;99.90;;;;;;4941115;28;21371;-79
2023/09/25 11:08:04;;;;;;;4.38;1.77;;;20.50;99.90;;;;;;4938940;29;20028;-80
2023/09/25 11:10:36;;;;;;;4.00;1.67;;;20.50;99.90;;;;;;4938994;29;20039;-80
2023/09/25 11:13:02;;;;;;;3.35;1.70;;;20.70;99.90;;;;;;4941655;29;20119;-80
2023/09/25 11:15:29;;;;;;;4.05;1.70;;;21.00;99.90;;;;;;4940462;29;20161;-80
2023/09/25 11:17:56;;;;;;;3.25;1.90;;;21.00;99.90;;;;;;4940451;29;20199;-83
2023/09/25 11:20:32;;;;;;;4.63;2.00;;;21.00;99.90;;;;;;4940251;29;20118;-80
2023/09/25 11:23:10;;;;;;;6.53;1.60;;;21.10;99.90;;;;;;4941430;29;20043;-80
2023/09/25 11:25:44;;;;;;;5.93;2.00;;;21.10;99.90;;;;;;4938980;28;20071;-81
2023/09/25 11:28:13;;;;;;;5.22;1.85;;;21.40;99.90;;;;;;4941735;29;20035;-81
2023/09/25 11:30:40;;;;;;;4.18;1.85;;;21.40;99.90;;;;;;4942378;29;20051;-81
2023/09/25 11:33:09;;;;;;;4.40;1.95;;;21.50;99.90;;;;;;4941992;29;20020;-82
2023/09/25 11:35:39;;;;;;;4.00;1.70;;;21.60;99.90;;;;;;4939972;28;20107;-82
2023/09/25 11:38:21;;;;;;;2.65;1.50;;;21.50;99.90;;;;;;4939177;29;20074;-83
2023/09/25 11:40:47;;;;;;;2.40;1.50;;;21.50;99.90;;;;;;4939786;29;20268;-82
2023/09/25 11:43:13;;;;;;;6.10;1.88;;;21.50;99.90;;;;;;4936190;29;20035;-83
2023/09/25 11:45:40;;;;;;;4.55;1.73;;;21.60;99.90;;;;;;4938253;28;20090;-83
2023/09/25 11:48:05;;;;;;;4.40;1.92;;;21.60;99.90;;;;;;4941022;29;20031;-82
2023/09/25 11:50:31;;;;;;;2.70;1.65;;;21.80;99.90;;;;;;4944367;29;20050;-83
2023/09/25 11:52:57;;;;;;;3.22;1.80;;;21.80;99.90;;;;;;4945630;29;20087;-82
2023/09/25 11:55:23;;;;;;;3.58;1.95;;;21.90;99.90;;;;;;4942713;28;20038;-82
2023/09/25 11:57:49;;;;;;;2.20;1.48;;;21.90;99.90;;;;;;4944904;29;20106;-83
2023/09/25 12:00:15;;;;;;;3.28;1.70;;;21.90;99.90;;;;;;4944299;29;20051;-82
2023/09/25 12:02:43;;;;;;;4.55;1.80;;;21.80;99.90;;;;;;4944475;29;20046;-82
2023/09/25 12:05:09;;;;;;;3.53;1.60;;;21.90;99.90;;;;;;4944065;29;20066;-82
2023/09/25 12:07:38;;;;;;;3.10;2.13;;;21.70;99.90;;;;;;4945738;29;20485;-81
2023/09/25 12:10:07;;;;;;;2.22;1.73;;;21.80;99.90;;;;;;4946714;28;20035;-81
2023/09/25 12:12:35;;;;;;;5.30;2.08;;;21.80;99.90;;;;;;4943442;28;20027;-81
2023/09/25 12:15:03;;;;;;;3.83;2.10;;;21.70;99.90;;;;;;4944691;29;20038;-81
2023/09/25 12:17:30;;;;;;;5.70;1.98;;;21.50;99.90;;;;;;4947548;29;20046;-81
2023/09/25 12:20:15;;;;;;;4.43;1.95;;;21.40;99.90;;;;;;4946152;29;20058;-81
2023/09/25 12:22:42;;;;;;;4.90;2.35;;;21.60;99.90;;;;;;4945870;29;20123;-81
2023/09/25 12:25:09;;;;;;;3.17;2.00;;;21.90;99.90;;;;;;4947002;28;20035;-82
2023/09/25 12:27:36;;;;;;;4.32;2.10;;;21.90;99.90;;;;;;4946417;29;20035;-81
2023/09/25 12:30:03;;;;;;;3.95;2.05;;;22.10;99.90;;;;;;4943364;29;20066;-81
2023/09/25 12:32:29;;;;;;;3.15;2.15;;;22.00;99.90;;;;;;4944746;29;20066;-81
2023/09/25 12:34:55;;;;;;;5.32;2.40;;;22.10;99.90;;;;;;4946856;28;20063;-81
2023/09/25 12:37:20;;;;;;;6.78;2.10;;;21.90;99.90;;;;;;4948120;29;20454;-80
2023/09/25 12:39:46;;;;;;;4.60;1.75;;;22.10;99.90;;;;;;4944850;29;20031;-81
2023/09/25 12:42:11;;;;;;;7.10;2.10;;;22.10;99.90;;;;;;4942241;29;20085;-81
2023/09/25 12:44:37;;;;;;;3.75;2.55;;;22.00;99.90;;;;;;4942513;28;20027;-82
2023/09/25 12:47:02;;;;;;;4.55;2.15;;;22.00;99.90;;;;;;4944006;29;20032;-81
2023/09/25 12:49:28;;;;;;;3.92;1.90;;;21.80;99.90;;;;;;4942853;29;20126;-82